createdAt,value
2022-12-15T00:00:33.769Z,19.83
2022-12-15T00:03:26.030Z,18.75
2022-12-15T00:06:11.809Z,18.02
2022-12-15T00:08:57.548Z,17.83
2022-12-15T00:11:43.182Z,18.13
2022-12-15T00:14:29.422Z,17.80
2022-12-15T00:17:15.199Z,18.25
2022-12-15T00:20:02.376Z,18.17
2022-12-15T00:22:48.272Z,17.58
2022-12-15T00:25:34.099Z,16.67
2022-12-15T00:28:20.366Z,16.70
2022-12-15T00:31:06.354Z,16.38
2022-12-15T00:33:52.418Z,15.73
2022-12-15T00:36:39.806Z,15.05
2022-12-15T00:39:08.109Z,16.48
2022-12-15T00:41:36.729Z,15.93
2022-12-15T00:44:05.640Z,16.20
2022-12-15T00:46:51.786Z,15.23
2022-12-15T00:49:37.617Z,16.05
2022-12-15T00:52:24.983Z,15.27
2022-12-15T00:55:11.135Z,15.05
2022-12-15T00:57:57.370Z,13.60
2022-12-15T01:00:43.602Z,14.60
2022-12-15T01:03:32.614Z,16.20
2022-12-15T01:06:19.058Z,14.93
2022-12-15T01:09:06.109Z,15.23
2022-12-15T01:11:51.903Z,14.35
2022-12-15T01:14:37.540Z,15.00
2022-12-15T01:17:26.035Z,14.95
2022-12-15T01:20:12.155Z,14.25
2022-12-15T01:22:41.750Z,14.95
2022-12-15T01:25:12.531Z,16.20
2022-12-15T01:27:41.128Z,16.65
2022-12-15T01:30:13.288Z,16.27
2022-12-15T01:32:45.970Z,15.82
2022-12-15T01:35:15.237Z,16.00
2022-12-15T01:37:44.257Z,16.98
2022-12-15T01:40:39.625Z,16.48
2022-12-15T01:43:15.218Z,15.85
2022-12-15T01:45:58.577Z,16.90
2022-12-15T01:48:33.868Z,16.27
2022-12-15T01:51:12.545Z,15.98
2022-12-15T01:53:47.129Z,17.00
2022-12-15T01:56:21.188Z,16.30
2022-12-15T01:58:53.948Z,15.98
2022-12-15T02:01:22.806Z,17.65
2022-12-15T02:03:52.048Z,15.68
2022-12-15T02:06:22.843Z,16.08
2022-12-15T02:08:56.062Z,15.88
2022-12-15T02:11:58.437Z,16.42
2022-12-15T02:14:44.686Z,16.85
2022-12-15T02:17:33.332Z,16.98
2022-12-15T02:20:46.062Z,17.13
2022-12-15T02:23:53.981Z,15.77
2022-12-15T02:26:59.677Z,14.88
2022-12-15T02:30:01.361Z,15.13
2022-12-15T02:32:37.664Z,14.70
2022-12-15T02:35:11.546Z,15.20
2022-12-15T02:37:41.713Z,15.02
2022-12-15T02:40:12.091Z,15.85
2022-12-15T02:42:46.356Z,15.48
2022-12-15T02:45:18.073Z,15.85
2022-12-15T02:48:01.505Z,17.13
2022-12-15T02:50:52.413Z,15.43
2022-12-15T02:53:46.621Z,16.20
2022-12-15T02:56:21.627Z,16.20
2022-12-15T02:59:02.177Z,16.35
2022-12-15T03:01:37.102Z,14.98
2022-12-15T03:04:10.522Z,15.65
2022-12-15T03:06:39.328Z,16.38
2022-12-15T03:09:07.712Z,16.45
2022-12-15T03:11:36.985Z,16.70
2022-12-15T03:14:05.539Z,16.02
2022-12-15T03:16:34.496Z,17.40
2022-12-15T03:19:03.238Z,16.52
2022-12-15T03:21:32.858Z,17.05
2022-12-15T03:24:01.450Z,18.38
2022-12-15T03:26:29.716Z,16.98
2022-12-15T03:28:57.977Z,15.82
2022-12-15T03:31:26.332Z,17.20
2022-12-15T03:33:55.367Z,17.45
2022-12-15T03:36:23.950Z,18.35
2022-12-15T03:38:53.764Z,17.90
2022-12-15T03:41:22.027Z,18.05
2022-12-15T03:43:50.279Z,17.27
2022-12-15T03:46:18.953Z,18.25
2022-12-15T03:48:47.260Z,16.67
2022-12-15T03:51:15.611Z,17.90
2022-12-15T03:53:43.974Z,16.92
2022-12-15T03:56:13.731Z,16.30
2022-12-15T03:58:42.113Z,17.27
2022-12-15T04:01:13.187Z,18.55
2022-12-15T04:03:41.821Z,18.65
2022-12-15T04:06:10.400Z,17.45
2022-12-15T04:08:38.910Z,17.75
2022-12-15T04:11:07.494Z,18.20
2022-12-15T04:13:37.856Z,18.20
2022-12-15T04:16:06.822Z,18.60
2022-12-15T04:18:35.362Z,18.25
2022-12-15T04:21:02.697Z,17.65
2022-12-15T04:23:31.555Z,18.42
2022-12-15T04:26:17.856Z,19.98
2022-12-15T04:29:05.336Z,19.25
2022-12-15T04:31:53.161Z,19.35
2022-12-15T04:34:42.552Z,19.23
2022-12-15T04:37:31.974Z,18.33
2022-12-15T04:40:19.175Z,19.33
2022-12-15T04:43:06.291Z,20.30
2022-12-15T04:45:54.056Z,17.77
2022-12-15T04:48:40.296Z,19.00
2022-12-15T04:51:26.068Z,18.58
2022-12-15T04:54:12.012Z,18.70
2022-12-15T04:56:57.917Z,19.25
2022-12-15T04:59:44.261Z,18.40
2022-12-15T05:02:31.536Z,19.00
2022-12-15T05:05:17.601Z,19.60
2022-12-15T05:08:03.501Z,19.85
2022-12-15T05:10:49.716Z,20.38
2022-12-15T05:13:35.666Z,21.05
2022-12-15T05:16:23.864Z,21.27
2022-12-15T05:19:11.327Z,22.35
2022-12-15T05:21:57.320Z,20.42
2022-12-15T05:24:43.357Z,23.25
2022-12-15T05:27:29.542Z,23.13
2022-12-15T05:30:15.363Z,20.95
2022-12-15T05:32:43.661Z,22.08
2022-12-15T05:35:14.363Z,22.95
2022-12-15T05:37:42.838Z,21.42
2022-12-15T05:40:12.462Z,22.48
2022-12-15T05:42:40.906Z,22.50
2022-12-15T05:45:11.742Z,22.10
2022-12-15T05:47:40.180Z,22.17
2022-12-15T05:50:10.163Z,23.05
2022-12-15T05:52:42.071Z,24.48
2022-12-15T05:55:13.442Z,21.52
2022-12-15T05:57:42.045Z,21.02
2022-12-15T06:00:12.138Z,24.02
2022-12-15T06:02:40.756Z,23.20
2022-12-15T06:05:10.902Z,22.95
2022-12-15T06:07:41.229Z,22.50
2022-12-15T06:10:10.662Z,23.40
2022-12-15T06:12:43.689Z,23.98
2022-12-15T06:15:12.270Z,22.30
2022-12-15T06:17:40.785Z,23.77
2022-12-15T06:20:10.483Z,23.77
2022-12-15T06:22:49.442Z,23.13
2022-12-15T06:25:18.547Z,23.90
2022-12-15T06:27:46.926Z,21.50
2022-12-15T06:30:16.267Z,21.95
2022-12-15T06:32:44.575Z,22.90
2022-12-15T06:35:12.899Z,22.05
2022-12-15T06:37:43.067Z,24.60
2022-12-15T06:40:12.708Z,24.42
2022-12-15T06:42:41.289Z,24.17
2022-12-15T06:45:11.290Z,24.92
2022-12-15T06:47:39.713Z,24.42
2022-12-15T06:50:08.760Z,26.63
2022-12-15T06:52:37.394Z,25.58
2022-12-15T06:55:08.451Z,25.50
2022-12-15T06:57:36.707Z,24.48
2022-12-15T07:00:07.618Z,25.23
2022-12-15T07:02:36.041Z,23.95
2022-12-15T07:05:05.745Z,24.85
2022-12-15T07:07:34.139Z,25.17
2022-12-15T07:10:02.546Z,24.77
2022-12-15T07:12:32.222Z,28.13
2022-12-15T07:15:00.675Z,31.52
2022-12-15T07:17:29.001Z,34.10
2022-12-15T07:19:57.372Z,32.40
2022-12-15T07:22:26.155Z,31.95
2022-12-15T07:24:54.497Z,29.63
2022-12-15T07:27:22.845Z,28.00
2022-12-15T07:29:52.614Z,27.20
2022-12-15T07:32:21.893Z,27.58
2022-12-15T07:34:50.183Z,26.80
2022-12-15T07:37:18.737Z,28.88
2022-12-15T07:39:47.002Z,31.42
2022-12-15T07:42:18.018Z,28.20
2022-12-15T07:44:46.579Z,28.02
2022-12-15T07:47:20.163Z,28.05
2022-12-15T07:49:48.620Z,28.10
2022-12-15T07:52:17.202Z,28.73
2022-12-15T07:54:46.031Z,29.05
2022-12-15T07:57:14.493Z,31.50
2022-12-15T07:59:43.001Z,30.33
2022-12-15T08:02:12.936Z,31.48
2022-12-15T08:04:43.156Z,31.13
2022-12-15T08:07:12.422Z,33.42
2022-12-15T08:09:43.925Z,32.13
2022-12-15T08:12:12.302Z,33.17
2022-12-15T08:14:40.664Z,33.50
2022-12-15T08:17:08.901Z,34.25
2022-12-15T08:19:37.695Z,33.67
2022-12-15T08:22:07.383Z,31.90
2022-12-15T08:24:35.710Z,35.33
2022-12-15T08:27:04.074Z,36.58
2022-12-15T08:29:51.339Z,33.83
2022-12-15T08:32:20.756Z,34.03
2022-12-15T08:34:49.958Z,35.83
2022-12-15T08:37:19.662Z,37.22
2022-12-15T08:39:48.113Z,36.95
2022-12-15T08:42:16.453Z,36.85
2022-12-15T08:44:46.176Z,33.88
2022-12-15T08:47:14.800Z,37.15
2022-12-15T08:49:43.339Z,36.45
2022-12-15T08:52:12.604Z,40.45
2022-12-15T08:54:42.539Z,38.03
2022-12-15T08:57:10.902Z,40.75
2022-12-15T08:59:41.988Z,38.85
2022-12-15T09:02:14.712Z,39.97
2022-12-15T09:04:44.398Z,39.85
2022-12-15T09:07:13.690Z,40.58
2022-12-15T09:09:44.709Z,40.30
2022-12-15T09:12:14.183Z,40.97
2022-12-15T09:14:42.583Z,42.13
2022-12-15T09:17:11.025Z,42.75
2022-12-15T09:19:39.839Z,44.35
2022-12-15T09:22:08.686Z,44.13
2022-12-15T09:24:37.915Z,44.50
2022-12-15T09:27:07.934Z,45.58
2022-12-15T09:29:36.608Z,41.35
2022-12-15T09:32:12.159Z,45.28
2022-12-15T09:34:43.008Z,46.95
2022-12-15T09:37:11.666Z,46.25
2022-12-15T09:39:40.151Z,44.45
2022-12-15T09:42:25.960Z,44.63
2022-12-15T09:45:02.276Z,47.42
2022-12-15T09:47:41.670Z,46.22
2022-12-15T09:50:13.894Z,47.45
2022-12-15T09:52:49.705Z,48.38
2022-12-15T09:55:23.178Z,51.25
2022-12-15T09:57:55.751Z,49.25
2022-12-15T10:00:26.062Z,51.15
2022-12-15T10:03:42.718Z,47.75
2022-12-15T10:06:17.592Z,49.50
2022-12-15T10:08:51.042Z,48.50
2022-12-15T10:11:40.054Z,48.13
2022-12-15T10:14:22.836Z,47.33
2022-12-15T10:17:01.640Z,47.25
2022-12-15T10:19:40.402Z,47.92
2022-12-15T10:22:15.186Z,47.78
2022-12-15T10:27:59.001Z,48.72
2022-12-15T10:30:29.286Z,49.70
2022-12-15T10:33:04.224Z,50.00
2022-12-15T10:35:35.442Z,49.78
2022-12-15T10:38:06.491Z,48.05
2022-12-15T10:43:40.634Z,46.33
2022-12-15T10:46:15.696Z,48.72
2022-12-15T10:48:49.218Z,47.17
2022-12-15T10:51:23.652Z,46.22
2022-12-15T10:53:55.783Z,45.83
2022-12-15T10:59:27.363Z,45.65
2022-12-15T11:01:57.477Z,45.17
2022-12-15T11:04:28.387Z,45.55
2022-12-15T11:07:02.089Z,45.83
2022-12-15T11:09:35.924Z,46.08
2022-12-15T11:12:35.397Z,41.10
2022-12-15T11:15:04.000Z,41.30
2022-12-15T11:17:42.144Z,41.85
2022-12-15T11:20:22.795Z,41.13
2022-12-15T11:22:57.279Z,42.20
2022-12-15T11:25:34.091Z,41.65
2022-12-15T11:28:09.863Z,40.63
2022-12-15T11:30:45.244Z,38.95
2022-12-15T11:33:15.950Z,38.55
2022-12-15T11:36:00.175Z,35.90
2022-12-15T11:38:38.473Z,35.55
2022-12-15T11:41:18.824Z,33.25
2022-12-15T11:44:17.789Z,27.75
2022-12-15T11:46:55.384Z,27.88
2022-12-15T11:50:03.895Z,27.73
2022-12-15T11:53:08.259Z,26.80
2022-12-15T11:55:46.742Z,25.77
2022-12-15T11:58:52.024Z,25.42
2022-12-15T12:01:51.652Z,25.20
2022-12-15T12:04:26.087Z,25.10
2022-12-15T12:07:10.157Z,24.13
2022-12-15T12:09:42.767Z,24.65
2022-12-15T12:12:24.462Z,25.85
2022-12-15T12:15:06.103Z,24.45
2022-12-15T12:17:45.822Z,24.55
2022-12-15T12:20:19.825Z,25.27
2022-12-15T12:23:00.283Z,25.60
2022-12-15T12:25:28.853Z,25.23
2022-12-15T12:28:02.198Z,25.63
2022-12-15T12:30:38.849Z,24.67
2022-12-15T12:33:24.544Z,25.95
2022-12-15T12:35:57.452Z,25.15
2022-12-15T12:38:36.585Z,25.02
2022-12-15T12:41:10.098Z,24.85
2022-12-15T12:43:43.844Z,22.25
2022-12-15T12:46:18.061Z,24.15
2022-12-15T12:48:51.292Z,24.42
2022-12-15T12:51:27.143Z,21.05
2022-12-15T12:53:58.950Z,19.55
2022-12-15T12:56:40.815Z,21.15
2022-12-15T12:59:39.164Z,20.08
2022-12-15T13:02:45.578Z,18.95
2022-12-15T13:05:33.919Z,20.08
2022-12-15T13:08:52.426Z,19.58
2022-12-15T13:14:51.751Z,18.90
2022-12-15T13:17:30.650Z,19.48
2022-12-15T13:20:25.958Z,19.17
2022-12-15T13:22:56.941Z,20.50
2022-12-15T13:25:50.325Z,19.67
2022-12-15T13:28:50.372Z,20.92
2022-12-15T13:31:34.390Z,21.25
2022-12-15T13:34:17.622Z,20.08
2022-12-15T13:36:58.017Z,19.80
2022-12-15T13:39:58.863Z,20.25
2022-12-15T13:42:47.272Z,20.63
2022-12-15T13:45:53.659Z,21.27
2022-12-15T13:48:34.279Z,21.10
2022-12-15T13:51:11.986Z,21.27
2022-12-15T13:53:45.452Z,21.30
2022-12-15T13:56:41.716Z,21.85
2022-12-15T13:59:26.534Z,21.10
2022-12-15T14:01:59.252Z,21.25
2022-12-15T14:04:28.027Z,21.35
2022-12-15T14:06:59.509Z,20.05
2022-12-15T14:09:32.208Z,21.55
2022-12-15T14:12:03.089Z,22.05
2022-12-15T14:14:36.506Z,22.88
2022-12-15T14:17:10.090Z,24.40
2022-12-15T14:19:41.238Z,24.70
2022-12-15T14:22:28.475Z,24.08
2022-12-15T14:25:03.960Z,23.15
2022-12-15T14:27:34.993Z,23.05
2022-12-15T14:30:22.411Z,25.10
2022-12-15T14:32:58.197Z,23.45
2022-12-15T14:35:32.262Z,25.25
2022-12-15T14:38:04.470Z,24.83
2022-12-15T14:40:35.445Z,24.98
2022-12-15T14:43:04.894Z,24.70
2022-12-15T14:45:34.318Z,24.58
2022-12-15T14:48:40.007Z,25.48
2022-12-15T14:51:02.197Z,25.60
2022-12-15T14:53:35.844Z,24.95
2022-12-15T14:56:30.668Z,26.15
2022-12-15T14:59:04.957Z,25.10
2022-12-15T15:01:41.385Z,25.98
2022-12-15T15:03:04.146Z,45.00
2022-12-15T15:03:07.288Z,19.85
2022-12-15T15:03:11.322Z,45.33
2022-12-15T15:04:29.194Z,25.60
2022-12-15T15:07:00.999Z,27.48
2022-12-15T15:09:32.871Z,26.80
2022-12-15T15:12:04.991Z,27.20
2022-12-15T15:14:40.083Z,27.63
2022-12-15T15:17:18.286Z,28.20
2022-12-15T15:19:53.559Z,27.63
2022-12-15T15:22:46.172Z,29.00
2022-12-15T15:25:41.421Z,28.35
2022-12-15T15:28:24.032Z,29.55
2022-12-15T15:30:56.712Z,28.77
2022-12-15T15:33:26.400Z,29.48
2022-12-15T15:35:59.710Z,30.85
2022-12-15T15:38:33.245Z,32.00
2022-12-15T15:41:11.161Z,30.95
2022-12-15T15:43:39.931Z,33.65
2022-12-15T15:46:12.576Z,35.15
2022-12-15T15:48:45.967Z,32.85
2022-12-15T15:51:16.309Z,34.10
2022-12-15T15:53:44.956Z,33.25
2022-12-15T15:56:16.489Z,33.45
2022-12-15T15:58:45.029Z,33.22
2022-12-15T16:01:13.911Z,33.78
2022-12-15T16:03:42.800Z,34.05
2022-12-15T16:06:19.147Z,32.95
2022-12-15T16:08:51.000Z,32.20
2022-12-15T16:11:20.167Z,33.38
2022-12-15T16:13:48.833Z,33.80
2022-12-15T16:16:22.062Z,34.20
2022-12-15T16:18:50.613Z,32.33
2022-12-15T16:21:24.344Z,33.70
2022-12-15T16:23:52.702Z,36.00
2022-12-15T16:26:29.525Z,34.00
2022-12-15T16:28:58.183Z,38.97
2022-12-15T16:31:35.625Z,36.08
2022-12-15T16:34:09.153Z,34.60
2022-12-15T16:36:39.326Z,35.63
2022-12-15T16:39:28.181Z,37.78
2022-12-15T16:41:57.750Z,35.63
2022-12-15T16:44:29.197Z,37.88
2022-12-15T16:46:58.806Z,41.83
2022-12-15T16:49:33.874Z,41.25
2022-12-15T16:52:18.706Z,40.90
2022-12-15T16:54:49.470Z,39.70
2022-12-15T16:57:18.487Z,39.65
2022-12-15T16:59:47.395Z,41.10
2022-12-15T17:02:27.341Z,40.15
2022-12-15T17:04:56.234Z,37.53
2022-12-15T17:07:28.281Z,38.72
2022-12-15T17:09:57.132Z,39.60
2022-12-15T17:12:25.694Z,39.28
2022-12-15T17:14:53.968Z,37.65
2022-12-15T17:17:22.309Z,39.85
2022-12-15T17:20:28.054Z,39.58
2022-12-15T17:22:41.803Z,38.85
2022-12-15T17:25:23.711Z,40.42
2022-12-15T17:28:12.470Z,39.25
2022-12-15T17:30:40.890Z,39.10
2022-12-15T17:33:21.812Z,36.33
2022-12-15T17:35:53.077Z,32.85
2022-12-15T17:38:25.387Z,35.63
2022-12-15T17:40:54.808Z,36.25
2022-12-15T17:43:29.356Z,39.10
2022-12-15T17:46:02.193Z,39.33
2022-12-15T17:48:30.547Z,42.83
2022-12-15T17:50:58.841Z,42.42
2022-12-15T17:53:28.783Z,43.83
2022-12-15T17:55:57.870Z,44.42
2022-12-15T17:58:28.307Z,42.25
2022-12-15T18:00:57.717Z,41.25
2022-12-15T18:03:26.518Z,46.83
2022-12-15T18:05:55.008Z,47.97
2022-12-15T18:08:26.373Z,46.58
2022-12-15T18:10:58.799Z,46.30
2022-12-15T18:13:34.856Z,45.75
2022-12-15T18:16:03.969Z,44.05
2022-12-15T18:18:32.509Z,48.05
2022-12-15T18:21:05.791Z,46.85
2022-12-15T18:23:34.685Z,49.20
2022-12-15T18:26:04.957Z,52.10
2022-12-15T18:28:35.717Z,51.38
2022-12-15T18:31:15.125Z,53.67
2022-12-15T18:33:44.467Z,56.00
2022-12-15T18:36:12.876Z,58.15
2022-12-15T18:38:41.712Z,60.53
2022-12-15T18:41:16.809Z,59.03
2022-12-15T18:43:47.250Z,59.75
2022-12-15T18:46:18.899Z,58.90
2022-12-15T18:48:47.424Z,59.97
2022-12-15T18:51:19.449Z,60.03
2022-12-15T18:53:49.406Z,59.78
2022-12-15T18:56:21.722Z,64.70
2022-12-15T18:58:50.160Z,61.30
2022-12-15T19:01:18.785Z,82.53
2022-12-15T19:03:47.294Z,82.03
2022-12-15T19:06:26.226Z,77.10
2022-12-15T19:08:54.935Z,74.20
2022-12-15T19:11:31.130Z,70.00
2022-12-15T19:14:00.217Z,74.95
2022-12-15T19:16:50.600Z,77.65
2022-12-15T19:19:36.356Z,76.70
2022-12-15T19:22:30.127Z,76.70
2022-12-15T19:24:59.100Z,78.55
2022-12-15T19:27:28.830Z,80.82
2022-12-15T19:29:57.154Z,83.00
2022-12-15T19:32:26.818Z,85.38
2022-12-15T19:34:55.192Z,99.78
2022-12-15T19:37:29.718Z,87.38
2022-12-15T19:40:00.568Z,85.97
2022-12-15T19:42:33.482Z,86.47
2022-12-15T19:45:02.541Z,83.72
2022-12-15T19:47:30.950Z,85.07
2022-12-15T19:49:59.160Z,81.55
2022-12-15T19:52:28.466Z,80.35
2022-12-15T19:54:56.816Z,84.85
2022-12-15T19:57:25.728Z,89.18
2022-12-15T19:59:55.476Z,85.07
2022-12-15T20:02:24.162Z,86.13
2022-12-15T20:04:52.528Z,88.25
2022-12-15T20:07:27.696Z,88.30
2022-12-15T20:09:58.194Z,86.57
2022-12-15T20:12:27.416Z,83.65
2022-12-15T20:14:57.716Z,82.35
2022-12-15T20:17:26.340Z,84.13
2022-12-15T20:19:54.980Z,84.97
2022-12-15T20:22:23.726Z,83.30
2022-12-15T20:24:52.092Z,79.90
2022-12-15T20:27:21.101Z,83.38
2022-12-15T20:29:49.386Z,85.57
2022-12-15T20:32:22.701Z,86.57
2022-12-15T20:34:51.003Z,84.28
2022-12-15T20:37:23.697Z,89.07
2022-12-15T20:39:57.118Z,91.38
2022-12-15T20:42:26.177Z,94.65
2022-12-15T20:44:54.613Z,102.75
2022-12-15T20:47:27.174Z,102.25
2022-12-15T20:49:56.627Z,104.53
2022-12-15T20:52:28.173Z,103.60
2022-12-15T20:54:57.496Z,102.80
2022-12-15T20:57:25.979Z,104.05
2022-12-15T20:59:54.256Z,102.93
2022-12-15T21:02:25.856Z,106.00
2022-12-15T21:04:55.170Z,100.68
2022-12-15T21:07:23.701Z,96.63
2022-12-15T21:09:51.994Z,94.35
2022-12-15T21:12:22.053Z,93.55
2022-12-15T21:14:51.015Z,92.20
2022-12-15T21:17:24.030Z,88.22
2022-12-15T21:19:52.411Z,83.55
2022-12-15T21:22:25.731Z,90.05
2022-12-15T21:24:57.574Z,86.28
2022-12-15T21:27:26.505Z,86.28
2022-12-15T21:29:54.943Z,89.68
2022-12-15T21:32:24.885Z,86.50
2022-12-15T21:34:53.097Z,87.93
2022-12-15T21:37:28.397Z,83.10
2022-12-15T21:39:57.481Z,79.10
2022-12-15T21:42:26.380Z,76.55
2022-12-15T21:44:54.585Z,66.72
2022-12-15T21:47:52.227Z,65.80
2022-12-15T21:50:21.073Z,58.83
2022-12-15T21:52:49.498Z,55.17
2022-12-15T21:55:22.824Z,50.05
2022-12-15T21:57:51.653Z,51.38
2022-12-15T22:00:22.331Z,51.50
2022-12-15T22:02:54.465Z,51.22
2022-12-15T22:05:29.395Z,48.65
2022-12-15T22:07:59.714Z,50.03
2022-12-15T22:10:28.462Z,50.47
2022-12-15T22:12:59.733Z,52.72
2022-12-15T22:15:30.221Z,52.22
2022-12-15T22:18:00.371Z,54.95
2022-12-15T22:20:28.675Z,55.75
2022-12-15T22:22:56.982Z,55.10
2022-12-15T22:25:26.865Z,54.67
2022-12-15T22:27:55.424Z,53.63
2022-12-15T22:30:27.256Z,55.65
2022-12-15T22:32:55.765Z,55.25
2022-12-15T22:35:27.462Z,54.67
2022-12-15T22:37:56.480Z,56.20
2022-12-15T22:40:26.007Z,55.97
2022-12-15T22:42:58.243Z,56.40
2022-12-15T22:45:26.642Z,55.60
2022-12-15T22:47:55.379Z,55.38
2022-12-15T22:50:27.889Z,54.90
2022-12-15T22:52:56.254Z,56.03
2022-12-15T22:55:25.454Z,56.13
2022-12-15T22:57:59.725Z,58.00
2022-12-15T23:00:28.583Z,58.30
2022-12-15T23:02:58.851Z,56.03
2022-12-15T23:05:29.336Z,55.28
2022-12-15T23:07:57.652Z,52.80
2022-12-15T23:10:43.665Z,54.65
2022-12-15T23:13:11.954Z,54.45
2022-12-15T23:15:57.821Z,51.88
2022-12-15T23:18:26.220Z,52.25
2022-12-15T23:20:56.734Z,50.95
2022-12-15T23:23:25.964Z,49.92
2022-12-15T23:25:54.825Z,51.80
2022-12-15T23:28:23.598Z,47.33
2022-12-15T23:30:53.174Z,49.42
2022-12-15T23:33:22.310Z,48.63
2022-12-15T23:35:51.063Z,49.00
2022-12-15T23:38:22.122Z,48.40
2022-12-15T23:40:53.259Z,49.17
2022-12-15T23:43:22.926Z,45.72
2022-12-15T23:45:59.106Z,49.97
2022-12-15T23:48:31.626Z,47.75
2022-12-15T23:51:09.499Z,45.55
2022-12-15T23:53:40.363Z,44.25
2022-12-15T23:56:11.866Z,44.38
2022-12-15T23:58:41.834Z,40.38
